Time;durP1;ratioP1;P1;durP2;ratioP2;P2;SDS_P1;SDS_P2;PMS_P1;PMS_P2;Temp;Humidity;BMP_temperature;BMP_pressure;BME280_temperature;BME280_humidity;BME280_pressure;Samples;Min_cycle;Max_cycle;Signal;HPM_P1;HPM_P2
2022/11/10 00:01:31;;;;;;;12.20;10.90;;;;;;;;;;108374;1268;22587;-29
2022/11/10 00:04:04;;;;;;;12.20;10.30;;;;;;;;;;108021;1271;408418;-30
2022/11/10 00:06:36;;;;;;;12.50;10.90;;;;;;;;;;108318;1274;22557;-30
2022/11/10 00:09:13;;;;;;;12.80;11.10;;;;;;;;;;108344;1262;25411;-30
2022/11/10 00:11:46;;;;;;;11.90;10.30;;;;;;;;;;108354;1268;23698;-30
2022/11/10 00:17:10;;;;;;;12.60;10.70;;;;;;;;;;108291;1271;22564;-30
2022/11/10 00:19:43;;;;;;;12.80;10.40;;;;;;;;;;108366;1268;22551;-30
2022/11/10 00:22:15;;;;;;;12.90;10.40;;;;;;;;;;108338;1271;22558;-30
2022/11/10 00:24:50;;;;;;;11.90;10.10;;;;;;;;;;108310;1269;22550;-30
2022/11/10 00:27:22;;;;;;;13.00;10.80;;;;;;;;;;108325;1274;22552;-30
2022/11/10 00:29:54;;;;;;;12.70;10.60;;;;;;;;;;108319;1270;22563;-30
2022/11/10 00:32:27;;;;;;;13.10;10.80;;;;;;;;;;108332;1269;24496;-30
2022/11/10 00:34:59;;;;;;;13.60;11.10;;;;;;;;;;108329;1268;23114;-30
2022/11/10 00:37:31;;;;;;;13.00;10.70;;;;;;;;;;108340;1274;22687;-30
2022/11/10 00:40:04;;;;;;;12.50;10.10;;;;;;;;;;108341;1274;22529;-30
2022/11/10 00:42:35;;;;;;;;;;;;;;;;;;108348;1271;22521;-30
2022/11/10 00:45:11;;;;;;;12.80;10.60;;;;;;;;;;108303;1268;23014;-30
2022/11/10 00:47:44;;;;;;;12.00;9.90;;;;;;;;;;108379;1274;22555;-30
2022/11/10 00:50:17;;;;;;;13.20;10.60;;;;;;;;;;108311;1272;22542;-30
2022/11/10 00:52:49;;;;;;;12.80;10.40;;;;;;;;;;108371;1274;22501;-30
2022/11/10 00:55:22;;;;;;;13.60;10.90;;;;;;;;;;108302;1271;24882;-30
2022/11/10 00:57:54;;;;;;;13.10;10.40;;;;;;;;;;108319;1274;22552;-30
2022/11/10 01:00:27;;;;;;;13.50;10.70;;;;;;;;;;108360;1272;25220;-30
2022/11/10 01:03:01;;;;;;;12.80;10.60;;;;;;;;;;108357;1272;22591;-30
2022/11/10 01:05:37;;;;;;;11.50;10.10;;;;;;;;;;108335;1268;22684;-30
2022/11/10 01:08:10;;;;;;;12.10;10.20;;;;;;;;;;108349;1271;22550;-30
2022/11/10 01:10:42;;;;;;;12.80;10.30;;;;;;;;;;108337;1270;22564;-30
2022/11/10 01:13:15;;;;;;;12.60;10.40;;;;;;;;;;108326;1269;22538;-30
2022/11/10 01:15:47;;;;;;;12.80;10.20;;;;;;;;;;108281;1269;23686;-30
2022/11/10 01:18:19;;;;;;;12.80;10.90;;;;;;;;;;108304;1271;22560;-31
2022/11/10 01:20:54;;;;;;;12.00;10.50;;;;;;;;;;108371;1269;22557;-30
2022/11/10 01:23:26;;;;;;;13.20;10.30;;;;;;;;;;108352;1270;22596;-30
2022/11/10 01:26:03;;;;;;;12.80;10.50;;;;;;;;;;108293;1275;23863;-30
2022/11/10 01:28:37;;;;;;;12.30;10.30;;;;;;;;;;108374;1274;22574;-30
2022/11/10 01:31:12;;;;;;;13.20;10.10;;;;;;;;;;108334;1271;22552;-30
2022/11/10 01:33:45;;;;;;;12.90;10.90;;;;;;;;;;108359;1271;22500;-30
2022/11/10 01:36:18;;;;;;;12.40;9.90;;;;;;;;;;108320;1269;22720;-30
2022/11/10 01:38:50;;;;;;;13.00;11.00;;;;;;;;;;108339;1273;22500;-30
2022/11/10 01:41:23;;;;;;;11.70;10.20;;;;;;;;;;108212;1265;22493;-30
2022/11/10 01:44:09;;;;;;;11.80;10.40;;;;;;;;;;108349;1270;22606;-30
2022/11/10 01:46:41;;;;;;;12.00;10.00;;;;;;;;;;108272;1274;22550;-30
2022/11/10 01:49:15;;;;;;;12.30;10.20;;;;;;;;;;108309;1268;22547;-30
2022/11/10 01:51:53;;;;;;;13.10;10.50;;;;;;;;;;108303;1268;22598;-30
2022/11/10 01:54:30;;;;;;;12.10;10.10;;;;;;;;;;108281;1269;22703;-30
2022/11/10 01:57:08;;;;;;;12.30;10.40;;;;;;;;;;108267;1269;22513;-30
2022/11/10 01:59:45;;;;;;;12.70;10.80;;;;;;;;;;108324;1274;22558;-30
2022/11/10 02:02:25;;;;;;;13.20;10.60;;;;;;;;;;108317;1269;22773;-30
2022/11/10 02:04:58;;;;;;;11.70;10.10;;;;;;;;;;108347;1265;22518;-30
2022/11/10 02:07:30;;;;;;;12.40;9.80;;;;;;;;;;108335;1274;22563;-30
2022/11/10 02:10:13;;;;;;;12.70;10.60;;;;;;;;;;108315;1274;22554;-30
2022/11/10 02:12:47;;;;;;;12.30;10.20;;;;;;;;;;108348;1268;22505;-30
2022/11/10 02:15:23;;;;;;;12.80;10.40;;;;;;;;;;108332;1271;22554;-30
2022/11/10 02:17:55;;;;;;;12.40;10.50;;;;;;;;;;108317;1271;22569;-30
2022/11/10 02:20:28;;;;;;;13.40;10.50;;;;;;;;;;108334;1268;22566;-30
2022/11/10 02:23:10;;;;;;;13.50;10.10;;;;;;;;;;108370;1269;25289;-30
2022/11/10 02:25:43;;;;;;;13.00;10.00;;;;;;;;;;108318;1271;22495;-30
2022/11/10 02:28:15;;;;;;;12.00;10.40;;;;;;;;;;108338;1274;22636;-30
2022/11/10 02:30:48;;;;;;;13.30;10.30;;;;;;;;;;108316;1271;22512;-30
2022/11/10 02:33:23;;;;;;;11.90;9.80;;;;;;;;;;108337;1274;22603;-30
2022/11/10 02:35:55;;;;;;;12.50;10.20;;;;;;;;;;108291;1271;22694;-30
2022/11/10 02:38:28;;;;;;;12.60;10.50;;;;;;;;;;108320;1272;25319;-30
2022/11/10 02:41:00;;;;;;;12.70;10.70;;;;;;;;;;108345;1271;23892;-30
2022/11/10 02:43:33;;;;;;;13.20;10.60;;;;;;;;;;108303;1270;26632;-30
2022/11/10 02:46:05;;;;;;;12.60;10.70;;;;;;;;;;108326;1271;22529;-30
2022/11/10 02:48:38;;;;;;;12.70;10.60;;;;;;;;;;108315;1268;25425;-30
2022/11/10 02:51:10;;;;;;;12.80;10.50;;;;;;;;;;108339;1274;22620;-30
2022/11/10 02:53:42;;;;;;;13.10;10.60;;;;;;;;;;108328;1274;22550;-31
2022/11/10 02:56:15;;;;;;;13.50;11.30;;;;;;;;;;108353;1274;22531;-30
2022/11/10 02:58:47;;;;;;;13.70;10.70;;;;;;;;;;108306;1268;22723;-30
2022/11/10 03:01:19;;;;;;;12.30;10.10;;;;;;;;;;108318;1274;22547;-30
2022/11/10 03:03:52;;;;;;;12.70;10.40;;;;;;;;;;108320;1273;22554;-31
2022/11/10 03:06:25;;;;;;;12.90;10.90;;;;;;;;;;108313;1269;22690;-30
2022/11/10 03:08:57;;;;;;;12.90;10.40;;;;;;;;;;108311;1274;25284;-30
2022/11/10 03:11:30;;;;;;;11.80;9.90;;;;;;;;;;108342;1271;22552;-30
2022/11/10 03:14:02;;;;;;;12.50;10.50;;;;;;;;;;108321;1271;22580;-30
2022/11/10 03:16:35;;;;;;;13.50;10.50;;;;;;;;;;108360;1271;22546;-31
2022/11/10 03:19:06;;;;;;;;;;;;;;;;;;108311;1268;22599;-30
2022/11/10 03:21:38;;;;;;;12.80;10.20;;;;;;;;;;108346;1271;22576;-30
2022/11/10 03:24:11;;;;;;;11.90;10.00;;;;;;;;;;108326;1274;22610;-30
2022/11/10 03:26:42;;;;;;;;;;;;;;;;;;108337;1274;25377;-30
2022/11/10 03:29:15;;;;;;;12.90;10.90;;;;;;;;;;108315;1266;23903;-30
2022/11/10 03:31:47;;;;;;;12.50;10.50;;;;;;;;;;108323;1274;22545;-30
2022/11/10 03:34:19;;;;;;;12.70;10.80;;;;;;;;;;108343;1271;22676;-30
2022/11/10 03:36:52;;;;;;;13.60;10.90;;;;;;;;;;108329;1272;24048;-30
2022/11/10 03:39:24;;;;;;;13.40;10.90;;;;;;;;;;108149;1273;23996;-30
2022/11/10 03:41:56;;;;;;;12.30;10.30;;;;;;;;;;108325;1271;22585;-30
2022/11/10 03:44:29;;;;;;;11.40;9.90;;;;;;;;;;108334;1274;22548;-30
2022/11/10 03:47:03;;;;;;;12.80;10.60;;;;;;;;;;108320;1270;22714;-30
2022/11/10 03:49:36;;;;;;;11.70;9.90;;;;;;;;;;108317;1268;22538;-30
2022/11/10 03:52:08;;;;;;;13.20;10.90;;;;;;;;;;108336;1268;22596;-31
2022/11/10 03:54:41;;;;;;;12.60;10.30;;;;;;;;;;108312;1274;22747;-30
2022/11/10 03:57:13;;;;;;;13.90;10.40;;;;;;;;;;108308;1274;22595;-30
2022/11/10 03:59:46;;;;;;;12.00;9.50;;;;;;;;;;108301;1270;22572;-30
2022/11/10 04:02:18;;;;;;;12.40;10.50;;;;;;;;;;108339;1268;22905;-30
2022/11/10 04:10:38;;;;;;;12.90;10.50;;;;;;;;;;107965;1280;22569;-30
2022/11/10 04:16:00;;;;;;;14.40;10.80;;;;;;;;;;108344;1272;22580;-30
2022/11/10 04:18:33;;;;;;;12.40;10.50;;;;;;;;;;108310;1271;22525;-31
2022/11/10 04:21:06;;;;;;;13.00;10.10;;;;;;;;;;108331;1274;22690;-30
2022/11/10 04:23:38;;;;;;;12.20;10.20;;;;;;;;;;108335;1270;22514;-30
2022/11/10 04:26:28;;;;;;;12.40;10.30;;;;;;;;;;108340;1262;22515;-30
2022/11/10 04:29:03;;;;;;;14.10;10.50;;;;;;;;;;108283;1273;22561;-30
2022/11/10 04:31:38;;;;;;;13.30;10.20;;;;;;;;;;108355;1272;22550;-30
2022/11/10 04:34:13;;;;;;;13.00;10.50;;;;;;;;;;108204;1277;23901;-30
2022/11/10 04:36:48;;;;;;;12.30;10.40;;;;;;;;;;108339;1263;23931;-30
2022/11/10 04:39:20;;;;;;;13.80;10.80;;;;;;;;;;108327;1273;22678;-30
2022/11/10 04:41:53;;;;;;;12.80;10.60;;;;;;;;;;108334;1274;22549;-30
2022/11/10 04:44:25;;;;;;;12.10;10.10;;;;;;;;;;108325;1271;22551;-30
2022/11/10 04:46:58;;;;;;;12.80;10.30;;;;;;;;;;108316;1269;22566;-30
2022/11/10 04:49:30;;;;;;;12.40;10.30;;;;;;;;;;108300;1274;22577;-30
2022/11/10 04:52:05;;;;;;;12.70;10.10;;;;;;;;;;108365;1274;22581;-30
2022/11/10 04:54:37;;;;;;;11.90;9.80;;;;;;;;;;108360;1269;22555;-31
2022/11/10 04:57:09;;;;;;;12.60;10.80;;;;;;;;;;108320;1274;22586;-30
2022/11/10 04:59:42;;;;;;;12.60;10.30;;;;;;;;;;108338;1268;22591;-30
2022/11/10 05:02:15;;;;;;;12.10;10.00;;;;;;;;;;108312;1270;22652;-31
2022/11/10 05:04:47;;;;;;;12.20;9.90;;;;;;;;;;108327;1274;22627;-30
2022/11/10 05:07:20;;;;;;;12.40;9.90;;;;;;;;;;108339;1273;25316;-30
2022/11/10 05:09:52;;;;;;;12.20;9.90;;;;;;;;;;108208;1270;22549;-30
2022/11/10 05:12:24;;;;;;;13.00;10.40;;;;;;;;;;108379;1274;22577;-30
2022/11/10 05:14:57;;;;;;;12.70;10.20;;;;;;;;;;108345;1270;22521;-31
2022/11/10 05:17:29;;;;;;;11.50;10.30;;;;;;;;;;108344;1274;22556;-31
2022/11/10 05:20:02;;;;;;;12.00;9.80;;;;;;;;;;108309;1274;22561;-30
2022/11/10 05:22:34;;;;;;;13.20;10.50;;;;;;;;;;108344;1269;22561;-30
2022/11/10 05:25:09;;;;;;;12.70;9.80;;;;;;;;;;108382;1274;22539;-30
2022/11/10 05:27:41;;;;;;;12.20;10.30;;;;;;;;;;108335;1269;22572;-30
2022/11/10 05:30:16;;;;;;;12.50;9.60;;;;;;;;;;108327;1270;22540;-30
2022/11/10 05:32:49;;;;;;;13.50;11.00;;;;;;;;;;108388;1274;22610;-30
2022/11/10 05:35:21;;;;;;;12.70;9.90;;;;;;;;;;108351;1272;22743;-30
2022/11/10 05:37:54;;;;;;;12.30;9.90;;;;;;;;;;108339;1268;22513;-30
2022/11/10 05:40:27;;;;;;;11.50;9.70;;;;;;;;;;108312;1271;22624;-30
2022/11/10 05:42:59;;;;;;;13.60;9.80;;;;;;;;;;108346;1274;22605;-30
2022/11/10 05:45:32;;;;;;;11.90;9.80;;;;;;;;;;108378;1269;24210;-32
2022/11/10 05:48:07;;;;;;;12.80;10.10;;;;;;;;;;108381;1274;22558;-32
2022/11/10 05:50:40;;;;;;;12.70;9.90;;;;;;;;;;108349;1269;22564;-32
2022/11/10 05:53:12;;;;;;;11.70;9.40;;;;;;;;;;108366;1262;22546;-32
2022/11/10 05:55:45;;;;;;;12.50;9.50;;;;;;;;;;108365;1269;22677;-32
2022/11/10 05:58:17;;;;;;;12.10;10.00;;;;;;;;;;108359;1269;22541;-32
2022/11/10 06:00:50;;;;;;;11.40;9.80;;;;;;;;;;108314;1271;22565;-32
2022/11/10 06:03:22;;;;;;;13.30;10.50;;;;;;;;;;108351;1269;22543;-32
2022/11/10 06:05:55;;;;;;;12.60;9.70;;;;;;;;;;108354;1269;22529;-32
2022/11/10 06:08:28;;;;;;;12.60;9.60;;;;;;;;;;108392;1268;22709;-30
2022/11/10 06:11:01;;;;;;;13.50;9.60;;;;;;;;;;108322;1268;22612;-30
2022/11/10 06:13:33;;;;;;;12.00;9.70;;;;;;;;;;108437;1269;22967;-31
2022/11/10 06:16:07;;;;;;;14.10;9.90;;;;;;;;;;108563;1274;22548;-31
2022/11/10 06:18:39;;;;;;;11.80;9.60;;;;;;;;;;108533;1269;22611;-31
2022/11/10 06:21:11;;;;;;;12.90;9.30;;;;;;;;;;108463;1268;22618;-31
2022/11/10 06:23:44;;;;;;;12.50;9.70;;;;;;;;;;108466;1274;22749;-29
2022/11/10 06:26:16;;;;;;;13.10;9.60;;;;;;;;;;108409;1268;23872;-29
2022/11/10 06:28:49;;;;;;;13.00;10.30;;;;;;;;;;108412;1271;22513;-29
2022/11/10 06:31:21;;;;;;;13.10;10.10;;;;;;;;;;108345;1271;22555;-29
2022/11/10 06:33:54;;;;;;;13.10;10.10;;;;;;;;;;108394;1265;22565;-29
2022/11/10 06:36:25;;;;;;;;;;;;;;;;;;108377;1274;22534;-29
2022/11/10 06:38:57;;;;;;;12.50;10.40;;;;;;;;;;108387;1261;25462;-29
2022/11/10 06:41:30;;;;;;;12.80;10.10;;;;;;;;;;108359;1268;23879;-29
2022/11/10 06:44:02;;;;;;;13.00;10.20;;;;;;;;;;108375;1268;22524;-32
2022/11/10 06:46:37;;;;;;;13.00;10.20;;;;;;;;;;108360;1268;22614;-32
2022/11/10 06:49:10;;;;;;;12.60;10.00;;;;;;;;;;108375;1272;22624;-32
2022/11/10 06:51:42;;;;;;;12.80;10.80;;;;;;;;;;108331;1270;22641;-32
2022/11/10 06:54:14;;;;;;;13.50;10.70;;;;;;;;;;108533;1258;22612;-31
2022/11/10 06:56:47;;;;;;;12.70;10.30;;;;;;;;;;108196;1268;22669;-31
2022/11/10 06:59:19;;;;;;;13.90;10.30;;;;;;;;;;108173;1267;22609;-28
2022/11/10 07:01:52;;;;;;;12.60;10.50;;;;;;;;;;108150;1275;22568;-28
2022/11/10 07:04:25;;;;;;;14.20;10.20;;;;;;;;;;108167;1277;24231;-31
2022/11/10 07:06:57;;;;;;;13.40;10.30;;;;;;;;;;108209;1270;22593;-31
2022/11/10 07:09:29;;;;;;;12.10;10.10;;;;;;;;;;108143;1265;22529;-29
2022/11/10 07:12:02;;;;;;;11.70;9.30;;;;;;;;;;108119;1272;22594;-29
2022/11/10 07:14:34;;;;;;;13.00;10.50;;;;;;;;;;108124;1272;22534;-29
2022/11/10 07:17:06;;;;;;;12.50;11.00;;;;;;;;;;108169;1271;22557;-29
2022/11/10 07:19:38;;;;;;;13.70;10.40;;;;;;;;;;108152;1277;22606;-29
2022/11/10 07:22:11;;;;;;;13.50;10.50;;;;;;;;;;108147;1271;24728;-29
2022/11/10 07:24:43;;;;;;;12.60;9.80;;;;;;;;;;108132;1277;22552;-29
2022/11/10 07:27:15;;;;;;;13.40;10.10;;;;;;;;;;108150;1271;22677;-29
2022/11/10 07:29:47;;;;;;;15.60;10.60;;;;;;;;;;108171;1267;22675;-28
2022/11/10 07:32:22;;;;;;;13.20;10.70;;;;;;;;;;108139;1275;25410;-28
2022/11/10 07:34:54;;;;;;;13.10;10.40;;;;;;;;;;108124;1273;22574;-29
2022/11/10 07:37:26;;;;;;;12.20;10.10;;;;;;;;;;108172;1277;23904;-30
2022/11/10 07:39:59;;;;;;;12.70;10.00;;;;;;;;;;108144;1277;22517;-29
2022/11/10 07:42:31;;;;;;;13.30;10.00;;;;;;;;;;108148;1275;22556;-29
2022/11/10 07:45:05;;;;;;;13.30;10.20;;;;;;;;;;108099;1271;22555;-29
2022/11/10 07:47:37;;;;;;;11.90;10.10;;;;;;;;;;108242;1277;22559;-28
2022/11/10 07:50:13;;;;;;;13.50;9.90;;;;;;;;;;108131;1274;22670;-29
2022/11/10 07:52:46;;;;;;;13.10;10.10;;;;;;;;;;108153;1265;22533;-30
2022/11/10 07:55:18;;;;;;;11.10;9.20;;;;;;;;;;108131;1272;22595;-29
2022/11/10 07:57:56;;;;;;;13.30;9.80;;;;;;;;;;108145;1277;23111;-29
2022/11/10 08:00:29;;;;;;;12.40;9.20;;;;;;;;;;108144;1277;22551;-29
2022/11/10 08:03:07;;;;;;;12.70;9.90;;;;;;;;;;107986;1277;192602;-29
2022/11/10 08:05:40;;;;;;;15.30;10.80;;;;;;;;;;108270;1272;22521;-29
2022/11/10 08:08:12;;;;;;;;;;;;;;;;;;108140;1272;22555;-29
2022/11/10 08:10:44;;;;;;;12.80;9.90;;;;;;;;;;108141;1270;22557;-29
2022/11/10 08:13:17;;;;;;;12.40;9.50;;;;;;;;;;108141;1277;25289;-32
2022/11/10 08:15:49;;;;;;;11.50;9.90;;;;;;;;;;108164;1273;22571;-31
2022/11/10 08:18:24;;;;;;;13.70;10.20;;;;;;;;;;108172;1272;22562;-31
2022/11/10 08:20:56;;;;;;;12.60;10.20;;;;;;;;;;108198;1272;22576;-31
2022/11/10 08:23:28;;;;;;;13.20;10.10;;;;;;;;;;108150;1271;22580;-30
2022/11/10 08:26:03;;;;;;;13.60;10.20;;;;;;;;;;108109;1273;22557;-30
2022/11/10 08:28:36;;;;;;;13.50;10.30;;;;;;;;;;108182;1275;22724;-30
2022/11/10 08:31:09;;;;;;;12.40;8.90;;;;;;;;;;108168;1277;22544;-30
2022/11/10 08:33:42;;;;;;;13.00;9.70;;;;;;;;;;108184;1272;22713;-30
2022/11/10 08:36:20;;;;;;;11.80;9.50;;;;;;;;;;108078;1274;22591;-31
2022/11/10 08:38:52;;;;;;;12.50;9.40;;;;;;;;;;108054;1264;22564;-31
2022/11/10 08:41:25;;;;;;;11.60;9.20;;;;;;;;;;108174;1271;22567;-31
2022/11/10 08:44:03;;;;;;;11.50;8.90;;;;;;;;;;108166;1272;22626;-30
2022/11/10 08:46:36;;;;;;;12.30;9.20;;;;;;;;;;108168;1268;22549;-30
2022/11/10 08:49:11;;;;;;;13.30;9.40;;;;;;;;;;108169;1271;22563;-30
2022/11/10 08:51:43;;;;;;;11.30;8.90;;;;;;;;;;108188;1272;22632;-30
2022/11/10 08:54:16;;;;;;;11.60;8.70;;;;;;;;;;108181;1271;22544;-30
2022/11/10 08:56:48;;;;;;;10.60;8.70;;;;;;;;;;108174;1271;22550;-30
2022/11/10 08:59:21;;;;;;;12.20;9.30;;;;;;;;;;108170;1274;22597;-30
2022/11/10 09:01:53;;;;;;;12.40;8.70;;;;;;;;;;108169;1271;22549;-30
2022/11/10 09:04:26;;;;;;;12.10;9.30;;;;;;;;;;108148;1272;22551;-30
2022/11/10 09:07:04;;;;;;;11.90;8.80;;;;;;;;;;108682;1255;22900;-27
2022/11/10 09:09:39;;;;;;;11.60;9.10;;;;;;;;;;108153;1272;22564;-27
2022/11/10 09:12:11;;;;;;;12.60;9.10;;;;;;;;;;108187;1277;23692;-26
2022/11/10 09:14:43;;;;;;;12.30;8.90;;;;;;;;;;108215;1269;22521;-27
2022/11/10 09:17:15;;;;;;;12.80;8.90;;;;;;;;;;108201;1269;22623;-28
2022/11/10 09:19:48;;;;;;;11.20;8.90;;;;;;;;;;108235;1269;22614;-28
2022/11/10 09:22:20;;;;;;;11.90;8.60;;;;;;;;;;108251;1268;22663;-28
2022/11/10 09:24:52;;;;;;;11.80;8.60;;;;;;;;;;108250;1270;22817;-28
2022/11/10 09:27:25;;;;;;;10.90;8.60;;;;;;;;;;108224;1272;22501;-28
2022/11/10 09:29:57;;;;;;;10.70;8.60;;;;;;;;;;108241;1271;22533;-28
2022/11/10 09:32:31;;;;;;;11.60;8.70;;;;;;;;;;108253;1269;22587;-28
2022/11/10 09:35:04;;;;;;;11.10;8.40;;;;;;;;;;108257;1268;22553;-28
2022/11/10 09:37:43;;;;;;;10.60;8.00;;;;;;;;;;108259;1271;22556;-28
2022/11/10 09:40:22;;;;;;;12.20;8.40;;;;;;;;;;108172;1274;22685;-27
2022/11/10 09:43:04;;;;;;;11.00;8.30;;;;;;;;;;108252;1271;22619;-27
2022/11/10 09:45:43;;;;;;;10.90;8.20;;;;;;;;;;108255;1271;22596;-27
2022/11/10 09:48:29;;;;;;;11.20;8.40;;;;;;;;;;108206;1277;22559;-28
2022/11/10 09:51:08;;;;;;;11.00;8.10;;;;;;;;;;108213;1269;22562;-27
2022/11/10 09:53:50;;;;;;;11.60;8.50;;;;;;;;;;108241;1272;22559;-26
2022/11/10 09:56:30;;;;;;;13.20;8.70;;;;;;;;;;108238;1271;22574;-28
2022/11/10 09:59:07;;;;;;;10.70;8.40;;;;;;;;;;108290;1271;22572;-28
2022/11/10 10:01:45;;;;;;;11.00;8.30;;;;;;;;;;108298;1268;22552;-28
2022/11/10 10:04:48;;;;;;;11.40;8.20;;;;;;;;;;108254;1271;22559;-28
2022/11/10 10:07:26;;;;;;;10.90;8.00;;;;;;;;;;108267;1268;23216;-28
2022/11/10 10:10:09;;;;;;;10.40;7.70;;;;;;;;;;108702;1258;22571;-29
2022/11/10 10:13:04;;;;;;;10.90;7.90;;;;;;;;;;108290;1264;25289;-28
2022/11/10 10:15:47;;;;;;;9.90;8.00;;;;;;;;;;108264;1271;22589;-29
2022/11/10 10:18:31;;;;;;;10.30;8.20;;;;;;;;;;108260;1263;22638;-30
2022/11/10 10:21:24;;;;;;;10.10;7.80;;;;;;;;;;108323;1271;22545;-29
2022/11/10 10:24:01;;;;;;;10.70;7.70;;;;;;;;;;108302;1271;25399;-28
2022/11/10 10:26:40;;;;;;;10.10;7.70;;;;;;;;;;108313;1269;22601;-29
2022/11/10 10:29:20;;;;;;;9.80;7.90;;;;;;;;;;108328;1271;22564;-29
2022/11/10 10:31:54;;;;;;;9.90;7.70;;;;;;;;;;108304;1263;22566;-30
2022/11/10 10:34:30;;;;;;;10.30;7.70;;;;;;;;;;108300;1266;24007;-29
2022/11/10 10:37:02;;;;;;;10.10;7.50;;;;;;;;;;108313;1269;22550;-27
2022/11/10 10:39:41;;;;;;;9.80;7.80;;;;;;;;;;108295;1270;22567;-27
2022/11/10 10:42:27;;;;;;;10.00;7.30;;;;;;;;;;108323;1271;22730;-28
2022/11/10 10:45:36;;;;;;;9.50;7.50;;;;;;;;;;108267;1269;22569;-27
2022/11/10 10:48:27;;;;;;;10.10;7.80;;;;;;;;;;108280;1271;25261;-28
2022/11/10 10:50:59;;;;;;;9.90;7.20;;;;;;;;;;108312;1269;24263;-28
2022/11/10 10:53:32;;;;;;;10.50;7.50;;;;;;;;;;108325;1268;22552;-28
2022/11/10 10:56:20;;;;;;;10.40;7.80;;;;;;;;;;108292;1262;22705;-28
2022/11/10 10:59:00;;;;;;;9.90;8.00;;;;;;;;;;108317;1271;22747;-28
2022/11/10 11:01:37;;;;;;;9.20;7.30;;;;;;;;;;108295;1269;22511;-27
2022/11/10 11:04:33;;;;;;;9.00;7.00;;;;;;;;;;108262;1271;22572;-28
2022/11/10 11:07:21;;;;;;;9.30;7.40;;;;;;;;;;108275;1270;22604;-28
2022/11/10 11:09:54;;;;;;;9.00;7.00;;;;;;;;;;108212;1269;22743;-28
2022/11/10 11:12:33;;;;;;;8.80;7.20;;;;;;;;;;108263;1269;21874;-28
2022/11/10 11:15:27;;;;;;;9.20;7.10;;;;;;;;;;108268;1271;22551;-28
2022/11/10 11:18:02;;;;;;;9.40;7.00;;;;;;;;;;108237;1271;23921;-28
2022/11/10 11:20:41;;;;;;;9.30;7.10;;;;;;;;;;108309;1262;22876;-28
2022/11/10 11:23:37;;;;;;;10.00;7.40;;;;;;;;;;108310;1269;22562;-28
2022/11/10 11:26:20;;;;;;;9.40;7.10;;;;;;;;;;108327;1261;25280;-28
2022/11/10 11:29:05;;;;;;;9.60;7.50;;;;;;;;;;108298;1271;22566;-27
2022/11/10 11:31:53;;;;;;;10.50;6.80;;;;;;;;;;108266;1271;22561;-29
2022/11/10 11:34:34;;;;;;;9.50;6.70;;;;;;;;;;108343;1262;22549;-27
2022/11/10 11:37:16;;;;;;;8.60;6.50;;;;;;;;;;108341;1265;22507;-27
2022/11/10 11:40:05;;;;;;;8.50;6.90;;;;;;;;;;108305;1271;22556;-27
2022/11/10 11:42:54;;;;;;;8.80;6.70;;;;;;;;;;108325;1269;22555;-27
2022/11/10 11:45:39;;;;;;;8.40;6.30;;;;;;;;;;108350;1271;22554;-28
2022/11/10 11:48:41;;;;;;;8.70;6.60;;;;;;;;;;108328;1270;22541;-28
2022/11/10 11:51:23;;;;;;;8.10;6.50;;;;;;;;;;108280;1271;22688;-28
2022/11/10 11:54:16;;;;;;;7.40;5.80;;;;;;;;;;108327;1268;22816;-28
2022/11/10 11:56:51;;;;;;;9.00;6.40;;;;;;;;;;108384;1269;22663;-28
2022/11/10 11:59:56;;;;;;;8.20;6.40;;;;;;;;;;108332;1270;22571;-28
2022/11/10 12:02:56;;;;;;;8.00;6.20;;;;;;;;;;108304;1270;23711;-28
2022/11/10 12:05:49;;;;;;;9.50;6.10;;;;;;;;;;108353;1269;22556;-30
2022/11/10 12:08:35;;;;;;;8.40;6.40;;;;;;;;;;108319;1270;22787;-31
2022/11/10 12:11:18;;;;;;;8.30;6.20;;;;;;;;;;108226;1271;22559;-30
2022/11/10 12:14:02;;;;;;;7.80;6.00;;;;;;;;;;108258;1271;22586;-31
2022/11/10 12:16:36;;;;;;;8.10;5.50;;;;;;;;;;108312;1271;22533;-30
2022/11/10 12:19:27;;;;;;;8.20;6.20;;;;;;;;;;108346;1267;22560;-30
2022/11/10 12:22:09;;;;;;;9.20;6.20;;;;;;;;;;108471;1271;24189;-30
2022/11/10 12:24:59;;;;;;;7.50;5.70;;;;;;;;;;108307;1271;22675;-30
2022/11/10 12:27:35;;;;;;;7.50;5.40;;;;;;;;;;108247;1271;22599;-30
2022/11/10 12:30:14;;;;;;;7.50;5.40;;;;;;;;;;108212;1268;23851;-30
2022/11/10 12:32:52;;;;;;;8.10;5.60;;;;;;;;;;108275;1272;22745;-30
2022/11/10 12:35:31;;;;;;;7.10;5.30;;;;;;;;;;108391;1271;25489;-30
2022/11/10 12:38:11;;;;;;;7.90;5.70;;;;;;;;;;108263;1271;22621;-30
2022/11/10 12:40:52;;;;;;;7.60;5.30;;;;;;;;;;108318;1271;22556;-30
2022/11/10 12:43:35;;;;;;;6.80;5.00;;;;;;;;;;108295;1271;23672;-30
2022/11/10 12:46:11;;;;;;;7.70;6.00;;;;;;;;;;108284;1271;22540;-30
2022/11/10 12:48:59;;;;;;;7.00;5.20;;;;;;;;;;108361;1271;22573;-30
2022/11/10 12:51:45;;;;;;;8.00;5.40;;;;;;;;;;108421;1271;23937;-29
2022/11/10 12:54:22;;;;;;;7.20;5.60;;;;;;;;;;108303;1271;22692;-29
2022/11/10 12:56:58;;;;;;;8.00;5.20;;;;;;;;;;108200;1271;22804;-30
2022/11/10 12:59:35;;;;;;;7.30;5.00;;;;;;;;;;108323;1271;22618;-30
2022/11/10 13:02:22;;;;;;;7.50;5.10;;;;;;;;;;108254;1270;22844;-30
2022/11/10 13:05:26;;;;;;;7.30;5.00;;;;;;;;;;108267;1271;22580;-29
2022/11/10 13:08:11;;;;;;;;;;;;;;;;;;108246;1271;22536;-29
2022/11/10 13:10:57;;;;;;;6.70;5.10;;;;;;;;;;108265;1271;23636;-30
2022/11/10 13:13:42;;;;;;;7.30;5.10;;;;;;;;;;108291;1272;22624;-29
2022/11/10 13:16:56;;;;;;;6.50;4.70;;;;;;;;;;108350;1271;22560;-30
2022/11/10 13:20:01;;;;;;;6.20;4.50;;;;;;;;;;108277;1268;22901;-29
2022/11/10 13:22:39;;;;;;;7.90;5.40;;;;;;;;;;107844;1274;24392;-30
2022/11/10 13:25:53;;;;;;;6.90;4.80;;;;;;;;;;107904;1275;22502;-29
2022/11/10 13:29:03;;;;;;;6.20;4.50;;;;;;;;;;108339;1268;22551;-29
2022/11/10 13:31:58;;;;;;;8.10;5.00;;;;;;;;;;108285;1271;25276;-29
2022/11/10 13:34:33;;;;;;;6.70;5.00;;;;;;;;;;108299;1269;22565;-30
2022/11/10 13:37:36;;;;;;;7.10;5.40;;;;;;;;;;108348;1268;22698;-29
2022/11/10 13:40:31;;;;;;;6.20;4.50;;;;;;;;;;108320;1273;22555;-29
2022/11/10 13:43:29;;;;;;;6.70;4.80;;;;;;;;;;108208;1262;22541;-29
2022/11/10 13:46:07;;;;;;;6.20;4.60;;;;;;;;;;108265;1268;22554;-29
2022/11/10 13:49:18;;;;;;;6.50;4.60;;;;;;;;;;108361;1269;22556;-29
2022/11/10 13:52:05;;;;;;;6.90;4.50;;;;;;;;;;108263;1271;22605;-29
2022/11/10 13:54:55;;;;;;;6.40;4.50;;;;;;;;;;108213;1272;23102;-28
2022/11/10 13:57:37;;;;;;;7.10;4.60;;;;;;;;;;108308;1269;22536;-30
2022/11/10 14:00:29;;;;;;;7.30;4.90;;;;;;;;;;108343;1265;22566;-30
2022/11/10 14:03:06;;;;;;;6.50;4.60;;;;;;;;;;108259;1269;25302;-30
2022/11/10 14:06:17;;;;;;;6.00;4.50;;;;;;;;;;108162;1275;22499;-30
2022/11/10 14:08:59;;;;;;;6.70;4.40;;;;;;;;;;108166;1271;22567;-30
2022/11/10 14:11:37;;;;;;;6.80;4.60;;;;;;;;;;108078;1271;22499;-30
2022/11/10 14:14:20;;;;;;;6.50;4.60;;;;;;;;;;108114;1274;23014;-30
2022/11/10 14:16:56;;;;;;;6.10;4.40;;;;;;;;;;108078;1270;22581;-30
2022/11/10 14:19:44;;;;;;;6.30;4.40;;;;;;;;;;108080;1271;22584;-30
2022/11/10 14:22:30;;;;;;;6.90;4.60;;;;;;;;;;108210;1273;22553;-30
2022/11/10 14:25:14;;;;;;;6.40;4.60;;;;;;;;;;108073;1262;24011;-31
2022/11/10 14:27:47;;;;;;;6.50;4.60;;;;;;;;;;108249;1271;25409;-31
2022/11/10 14:30:32;;;;;;;6.90;4.50;;;;;;;;;;108230;1266;22618;-30
2022/11/10 14:33:10;;;;;;;6.30;4.50;;;;;;;;;;108197;1270;23885;-31
2022/11/10 14:35:50;;;;;;;6.50;4.40;;;;;;;;;;108215;1272;22674;-30
2022/11/10 14:38:25;;;;;;;6.50;4.40;;;;;;;;;;108213;1271;22614;-30
2022/11/10 14:41:02;;;;;;;6.60;4.40;;;;;;;;;;108228;1267;22546;-30
2022/11/10 14:43:36;;;;;;;5.90;4.20;;;;;;;;;;108226;1275;25241;-30
2022/11/10 14:46:13;;;;;;;6.30;4.40;;;;;;;;;;108231;1274;22660;-30
2022/11/10 14:48:48;;;;;;;6.40;4.20;;;;;;;;;;108222;1272;23889;-30
2022/11/10 14:51:21;;;;;;;6.10;4.00;;;;;;;;;;108247;1271;22560;-30
2022/11/10 14:53:54;;;;;;;;;;;;;;;;;;108192;1272;25413;-30
2022/11/10 14:56:30;;;;;;;6.30;4.20;;;;;;;;;;108243;1268;22580;-30
2022/11/10 14:59:06;;;;;;;6.30;4.10;;;;;;;;;;108241;1275;22802;-30
2022/11/10 15:01:47;;;;;;;7.10;4.70;;;;;;;;;;108229;1267;22596;-30
2022/11/10 15:04:21;;;;;;;6.60;4.50;;;;;;;;;;108207;1271;23886;-30
2022/11/10 15:06:54;;;;;;;5.60;4.10;;;;;;;;;;108243;1275;25346;-30
2022/11/10 15:09:30;;;;;;;6.00;4.40;;;;;;;;;;108238;1271;22547;-30
2022/11/10 15:12:26;;;;;;;6.10;4.40;;;;;;;;;;108229;1269;22569;-29
2022/11/10 15:15:05;;;;;;;5.90;3.80;;;;;;;;;;108248;1265;22554;-29
2022/11/10 15:17:52;;;;;;;6.00;4.30;;;;;;;;;;108244;1268;22624;-30
2022/11/10 15:20:40;;;;;;;7.30;4.20;;;;;;;;;;108321;1269;22573;-30
2022/11/10 15:23:31;;;;;;;6.10;4.40;;;;;;;;;;108229;1271;22536;-30
2022/11/10 15:26:04;;;;;;;6.20;4.50;;;;;;;;;;108282;1268;22586;-30
2022/11/10 15:28:37;;;;;;;6.40;4.10;;;;;;;;;;108284;1268;22504;-29